Flinterborg — PHPH — position and weather

sailwx.info

Track history (hours):
 
Tides and Currents Weather Stations Pressure Air Temp Water Temp Dewpoint Dewpoint Depression Visibility Wind Speed Wind Dir Waves Ship Positions

Flinterborg

Last reported at 2017-Dec-11 15:50 UTC. Time now 2017-Dec-13 11:21 UTC.
Position N 59°22' E 006°03'.

Length 111 m; draft 3.7 m.

Type: Cargo ship. MMSI: 245433000.

Date/timePositionNaut miles runAvg speedWind from/ knotsBaromVisibWave heightAir tempDewpointWater temp
2017-Dec-11 15:50N 59°22' E 006°03'0 0.6
2017-Dec-11 15:31N 59°22' E 006°02'4 8.0
2017-Dec-11 15:00N 59°20' E 005°55'611.1
2017-Dec-11 14:30N 59°17' E 005°46'611.4
2017-Dec-11 13:56N 59°13' E 005°37'611.8
2017-Dec-11 13:27N 59°09' E 005°29'510.3
2017-Dec-11 12:59N 59°05' E 005°23'611.8
2017-Dec-11 12:29N 59°02' E 005°13'24611.7
2017-Dec-10 15:24N 58°43' W 002°41'613.8
2017-Dec-10 14:59N 58°43' W 002°52'816.0
2017-Dec-10 14:30N 58°43' W 003°07'209 9.4
2017-Dec-09 16:18N 55°54' W 006°54'311.1
2017-Dec-09 15:59N 55°51' W 006°51'510.7
2017-Dec-09 15:30N 55°47' W 006°46'510.6
2017-Dec-09 15:00N 55°42' W 006°42'510.0
2017-Dec-09 14:30N 55°38' W 006°36'610.2
2017-Dec-09 13:58N 55°34' W 006°29'5 9.7
2017-Dec-09 13:29N 55°31' W 006°23'5 9.7
2017-Dec-09 13:00N 55°28' W 006°17'5 9.0
2017-Dec-09 12:29N 55°25' W 006°11'4 9.0
2017-Dec-09 12:00N 55°24' W 006°03'4 8.6
2017-Dec-09 11:30N 55°21' W 005°58'4 8.4
2017-Dec-09 11:00N 55°18' W 005°54'5 9.1
2017-Dec-09 10:26N 55°14' W 005°48'1110.6
2017-Dec-09 09:26N 55°05' W 005°36'711.5
2017-Dec-09 08:51N 55°00' W 005°29'411.6
2017-Dec-09 08:29N 54°57' W 005°24'812.0
2017-Dec-09 07:51N 54°51' W 005°17'612.4
2017-Dec-09 07:20N 54°46' W 005°10'412.3
2017-Dec-09 07:01N 54°43' W 005°06'612.1
2017-Dec-09 06:30N 54°38' W 004°59'612.1
2017-Dec-09 05:59N 54°36' W 004°49'  
2017-Dec-03 21:55N 39°23' W 009°50'410.4
2017-Dec-03 21:30N 39°19' W 009°50'510.6
2017-Dec-03 21:00N 39°14' W 009°50'510.3
2017-Dec-03 20:30N 39°09' W 009°50'510.0
2017-Dec-03 20:00N 39°04' W 009°50'510.3
2017-Dec-03 19:30N 38°58' W 009°50'5 9.8
2017-Dec-03 19:00N 38°54' W 009°50'5 9.6
2017-Dec-03 18:30N 38°49' W 009°51'5 9.6
2017-Dec-03 18:00N 38°44' W 009°50'5 9.9
2017-Dec-03 17:30N 38°39' W 009°49'510.4
2017-Dec-03 17:00N 38°34' W 009°47'510.3
2017-Dec-03 16:29N 38°29' W 009°46'249 9.1
2017-Dec-02 13:03N 35°58' W 005°37'0 9.5
2017-Dec-02 13:00N 35°58' W 005°36'15 9.0
2017-Dec-02 11:23N 36°02' W 005°19'  
Track history (hours):
 
Tides and Currents Weather Stations Pressure Air Temp Water Temp Dewpoint Dewpoint Depression Visibility Wind Speed Wind Dir Waves Ship Positions

Flinterborg

Last reported at 2017-Dec-11 15:50 UTC. Time now 2017-Dec-13 11:21 UTC.
Position N 59°22' E 006°03'.

Length 111 m; draft 3.7 m.

Type: Cargo ship. MMSI: 245433000.

Date/timePositionNaut miles runAvg speedWind from/ knotsBaromVisibWave heightAir tempDewpointWater temp
2017-Dec-11 15:50N 59°22' E 006°03'0 0.6
2017-Dec-11 15:31N 59°22' E 006°02'4 8.0
2017-Dec-11 15:00N 59°20' E 005°55'611.1
2017-Dec-11 14:30N 59°17' E 005°46'611.4
2017-Dec-11 13:56N 59°13' E 005°37'611.8
2017-Dec-11 13:27N 59°09' E 005°29'510.3
2017-Dec-11 12:59N 59°05' E 005°23'611.8
2017-Dec-11 12:29N 59°02' E 005°13'24611.7
2017-Dec-10 15:24N 58°43' W 002°41'613.8
2017-Dec-10 14:59N 58°43' W 002°52'816.0
2017-Dec-10 14:30N 58°43' W 003°07'209 9.4
2017-Dec-09 16:18N 55°54' W 006°54'311.1
2017-Dec-09 15:59N 55°51' W 006°51'510.7
2017-Dec-09 15:30N 55°47' W 006°46'510.6
2017-Dec-09 15:00N 55°42' W 006°42'510.0
2017-Dec-09 14:30N 55°38' W 006°36'610.2
2017-Dec-09 13:58N 55°34' W 006°29'5 9.7
2017-Dec-09 13:29N 55°31' W 006°23'5 9.7
2017-Dec-09 13:00N 55°28' W 006°17'5 9.0
2017-Dec-09 12:29N 55°25' W 006°11'4 9.0
2017-Dec-09 12:00N 55°24' W 006°03'4 8.6
2017-Dec-09 11:30N 55°21' W 005°58'4 8.4
2017-Dec-09 11:00N 55°18' W 005°54'5 9.1
2017-Dec-09 10:26N 55°14' W 005°48'1110.6
2017-Dec-09 09:26N 55°05' W 005°36'711.5
2017-Dec-09 08:51N 55°00' W 005°29'411.6
2017-Dec-09 08:29N 54°57' W 005°24'812.0
2017-Dec-09 07:51N 54°51' W 005°17'612.4
2017-Dec-09 07:20N 54°46' W 005°10'412.3
2017-Dec-09 07:01N 54°43' W 005°06'612.1
2017-Dec-09 06:30N 54°38' W 004°59'612.1
2017-Dec-09 05:59N 54°36' W 004°49'  
2017-Dec-03 21:55N 39°23' W 009°50'410.4
2017-Dec-03 21:30N 39°19' W 009°50'510.6
2017-Dec-03 21:00N 39°14' W 009°50'510.3
2017-Dec-03 20:30N 39°09' W 009°50'510.0
2017-Dec-03 20:00N 39°04' W 009°50'510.3
2017-Dec-03 19:30N 38°58' W 009°50'5 9.8
2017-Dec-03 19:00N 38°54' W 009°50'5 9.6
2017-Dec-03 18:30N 38°49' W 009°51'5 9.6
2017-Dec-03 18:00N 38°44' W 009°50'5 9.9
2017-Dec-03 17:30N 38°39' W 009°49'510.4
2017-Dec-03 17:00N 38°34' W 009°47'510.3
2017-Dec-03 16:29N 38°29' W 009°46'249 9.1
2017-Dec-02 13:03N 35°58' W 005°37'0 9.5
2017-Dec-02 13:00N 35°58' W 005°36'15 9.0
2017-Dec-02 11:23N 36°02' W 005°19'  

Dump ship's entire track history